createdAt,value
2023-02-06T00:01:46.274Z,5.80
2023-02-06T00:03:48.448Z,5.70
2023-02-06T00:06:00.647Z,5.90
2023-02-06T00:08:03.168Z,5.70
2023-02-06T00:10:05.298Z,6.37
2023-02-06T00:12:07.091Z,6.17
2023-02-06T00:14:08.756Z,5.50
2023-02-06T00:16:23.472Z,5.73
2023-02-06T00:18:25.380Z,5.83
2023-02-06T00:20:27.021Z,5.20
2023-02-06T00:22:28.704Z,4.77
2023-02-06T00:24:32.449Z,5.20
2023-02-06T00:26:34.189Z,4.87
2023-02-06T00:28:36.000Z,5.30
2023-02-06T00:30:37.702Z,4.97
2023-02-06T00:32:39.477Z,5.10
2023-02-06T00:34:41.843Z,4.70
2023-02-06T00:36:43.515Z,5.07
2023-02-06T00:38:45.231Z,4.73
2023-02-06T00:40:47.686Z,4.97
2023-02-06T00:42:49.368Z,4.73
2023-02-06T00:44:53.519Z,4.73
2023-02-06T00:46:55.708Z,4.87
2023-02-06T00:48:59.939Z,4.80
2023-02-06T00:51:03.689Z,4.13
2023-02-06T00:53:05.448Z,4.43
2023-02-06T00:55:09.843Z,4.20
2023-02-06T00:57:11.528Z,4.33
2023-02-06T00:59:18.476Z,4.70
2023-02-06T01:01:20.276Z,4.90
2023-02-06T01:03:22.239Z,4.07
2023-02-06T01:05:24.073Z,3.83
2023-02-06T01:07:38.537Z,4.03
2023-02-06T01:09:45.166Z,3.90
2023-02-06T01:11:46.895Z,4.47
2023-02-06T01:13:48.934Z,4.07
2023-02-06T01:15:51.483Z,4.10
2023-02-06T01:17:53.199Z,3.90
2023-02-06T01:19:54.861Z,4.47
2023-02-06T01:21:58.643Z,4.07
2023-02-06T01:24:00.525Z,4.50
2023-02-06T01:26:10.712Z,4.10
2023-02-06T01:28:12.492Z,3.97
2023-02-06T01:30:14.527Z,4.07
2023-02-06T01:32:16.215Z,3.50
2023-02-06T01:34:17.904Z,3.87
2023-02-06T01:36:20.425Z,4.03
2023-02-06T01:38:22.480Z,3.83
2023-02-06T01:40:24.317Z,4.50
2023-02-06T01:42:26.049Z,3.90
2023-02-06T01:44:29.147Z,3.60
2023-02-06T01:46:36.168Z,3.73
2023-02-06T01:48:44.002Z,3.93
2023-02-06T01:50:51.058Z,3.87
2023-02-06T01:52:52.983Z,4.00
2023-02-06T01:54:59.051Z,3.40
2023-02-06T01:57:13.008Z,4.07
2023-02-06T01:59:16.440Z,3.63
2023-02-06T02:01:19.448Z,3.47
2023-02-06T02:03:24.436Z,3.80
2023-02-06T02:05:26.093Z,3.43
2023-02-06T02:07:34.682Z,3.20
2023-02-06T02:09:37.078Z,3.53
2023-02-06T02:11:41.813Z,3.77
2023-02-06T02:13:44.195Z,3.50
2023-02-06T02:15:51.352Z,3.53
2023-02-06T02:18:39.465Z,3.17
2023-02-06T02:20:56.534Z,4.03
2023-02-06T02:23:13.312Z,3.30
2023-02-06T02:25:23.972Z,3.13
2023-02-06T02:27:33.992Z,3.20
2023-02-06T02:30:07.401Z,3.67
2023-02-06T02:32:35.169Z,3.23
2023-02-06T02:34:47.616Z,2.97
2023-02-06T02:37:17.860Z,3.07
2023-02-06T02:39:35.727Z,3.17
2023-02-06T02:41:48.255Z,3.13
2023-02-06T02:44:09.775Z,3.27
2023-02-06T02:46:20.647Z,3.10
2023-02-06T02:48:30.536Z,3.20
2023-02-06T02:50:33.142Z,3.00
2023-02-06T02:52:37.075Z,2.97
2023-02-06T02:54:41.770Z,3.10
2023-02-06T02:56:43.608Z,3.10
2023-02-06T02:58:48.709Z,3.10
2023-02-06T03:00:58.761Z,3.20
2023-02-06T03:03:00.596Z,3.20
2023-02-06T03:05:06.599Z,3.07
2023-02-06T03:07:32.036Z,3.60
2023-02-06T03:10:06.008Z,3.80
2023-02-06T03:12:36.327Z,2.97
2023-02-06T03:14:49.835Z,3.50
2023-02-06T03:16:59.439Z,3.30
2023-02-06T03:19:14.864Z,3.07
2023-02-06T03:21:19.783Z,2.67
2023-02-06T03:23:27.365Z,3.00
2023-02-06T03:25:36.495Z,3.57
2023-02-06T03:27:42.566Z,3.40
2023-02-06T03:29:47.157Z,3.30
2023-02-06T03:32:05.267Z,3.53
2023-02-06T03:34:18.497Z,3.30
2023-02-06T03:36:20.606Z,3.60
2023-02-06T03:38:24.700Z,3.43
2023-02-06T03:40:28.010Z,3.73
2023-02-06T03:42:31.198Z,3.30
2023-02-06T03:44:39.275Z,3.50
2023-02-06T03:46:43.089Z,3.40
2023-02-06T03:48:52.164Z,3.63
2023-02-06T03:50:56.227Z,3.63
2023-02-06T03:53:00.460Z,3.30
2023-02-06T03:55:08.629Z,3.20
2023-02-06T03:57:12.836Z,3.63
2023-02-06T03:59:16.308Z,3.67
2023-02-06T04:01:18.985Z,3.37
2023-02-06T04:03:21.505Z,3.90
2023-02-06T04:05:23.455Z,3.37
2023-02-06T04:07:30.137Z,3.27
2023-02-06T04:09:31.797Z,3.37
2023-02-06T04:11:33.543Z,2.90
2023-02-06T04:13:35.351Z,3.30
2023-02-06T04:15:37.534Z,3.40
2023-02-06T04:17:57.493Z,3.07
2023-02-06T04:20:00.943Z,3.20
2023-02-06T04:22:03.033Z,3.30
2023-02-06T04:24:07.072Z,3.20
2023-02-06T04:26:08.732Z,3.10
2023-02-06T04:28:12.194Z,3.07
2023-02-06T04:30:15.386Z,3.53
2023-02-06T04:32:17.088Z,3.00
2023-02-06T04:34:21.157Z,2.90
2023-02-06T04:36:22.839Z,3.23
2023-02-06T04:38:24.512Z,3.03
2023-02-06T04:40:26.315Z,2.90
2023-02-06T04:42:28.033Z,3.07
2023-02-06T04:44:30.072Z,3.50
2023-02-06T04:46:31.730Z,2.67
2023-02-06T04:48:33.491Z,3.30
2023-02-06T04:50:35.518Z,2.93
2023-02-06T04:52:37.352Z,3.30
2023-02-06T04:54:39.065Z,3.63
2023-02-06T04:56:41.227Z,3.17
2023-02-06T04:58:42.916Z,3.23
2023-02-06T05:00:44.604Z,2.80
2023-02-06T05:02:53.106Z,2.77
2023-02-06T05:04:54.810Z,3.10
2023-02-06T05:06:56.506Z,3.20
2023-02-06T05:08:59.576Z,3.00
2023-02-06T05:11:01.313Z,3.00
2023-02-06T05:13:03.073Z,3.23
2023-02-06T05:15:07.692Z,3.10
2023-02-06T05:17:11.709Z,4.23
2023-02-06T05:19:13.403Z,3.40
2023-02-06T05:21:17.371Z,3.73
2023-02-06T05:23:19.050Z,3.83
2023-02-06T05:25:23.158Z,3.17
2023-02-06T05:27:25.519Z,3.80
2023-02-06T05:29:27.335Z,3.67
2023-02-06T05:31:29.255Z,3.63
2023-02-06T05:33:31.426Z,3.73
2023-02-06T05:35:35.561Z,4.37
2023-02-06T05:37:38.507Z,3.90
2023-02-06T05:39:42.150Z,3.57
2023-02-06T05:41:46.091Z,3.70
2023-02-06T05:43:48.146Z,4.53
2023-02-06T05:45:50.049Z,3.73
2023-02-06T05:47:55.527Z,4.10
2023-02-06T05:49:57.147Z,4.43
2023-02-06T05:52:00.992Z,4.13
2023-02-06T05:54:04.948Z,4.53
2023-02-06T05:56:06.863Z,4.00
2023-02-06T05:58:10.916Z,4.10
2023-02-06T06:00:15.385Z,4.07
2023-02-06T06:02:17.521Z,4.60
2023-02-06T06:04:23.316Z,4.30
2023-02-06T06:06:25.105Z,4.67
2023-02-06T06:08:27.069Z,4.13
2023-02-06T06:10:29.973Z,4.70
2023-02-06T06:12:31.769Z,4.60
2023-02-06T06:14:33.987Z,4.60
2023-02-06T06:16:38.097Z,5.27
2023-02-06T06:18:39.874Z,4.43
2023-02-06T06:20:46.009Z,4.63
2023-02-06T06:22:47.887Z,4.93
2023-02-06T06:24:49.928Z,4.57
2023-02-06T06:26:51.705Z,4.67
2023-02-06T06:28:53.472Z,5.20
2023-02-06T06:31:02.672Z,4.80
2023-02-06T06:33:07.899Z,4.90
2023-02-06T06:35:09.610Z,5.43
2023-02-06T06:37:12.603Z,5.17
2023-02-06T06:39:14.257Z,5.03
2023-02-06T06:41:16.014Z,5.40
2023-02-06T06:43:17.677Z,5.47
2023-02-06T06:45:19.563Z,5.23
2023-02-06T06:47:22.511Z,5.47
2023-02-06T06:49:26.854Z,5.37
2023-02-06T06:51:34.415Z,5.10
2023-02-06T06:53:39.824Z,5.70
2023-02-06T06:55:41.626Z,5.63
2023-02-06T06:57:43.360Z,5.27
2023-02-06T06:59:45.076Z,5.30
2023-02-06T07:01:48.676Z,5.43
2023-02-06T07:03:50.300Z,4.90
2023-02-06T07:05:54.418Z,6.57
2023-02-06T07:07:56.119Z,5.40
2023-02-06T07:09:59.592Z,5.37
2023-02-06T07:12:02.569Z,5.93
2023-02-06T07:14:04.425Z,5.50
2023-02-06T07:16:09.047Z,5.47
2023-02-06T07:18:11.867Z,6.20
2023-02-06T07:20:14.205Z,5.27
2023-02-06T07:22:16.036Z,5.73
2023-02-06T07:24:20.406Z,5.97
2023-02-06T07:26:22.305Z,6.07
2023-02-06T07:28:23.946Z,5.83
2023-02-06T07:30:30.704Z,5.67
2023-02-06T07:32:35.677Z,5.57
2023-02-06T07:34:37.708Z,5.53
2023-02-06T07:36:39.405Z,5.27
2023-02-06T07:38:41.546Z,5.37
2023-02-06T07:40:46.136Z,5.90
2023-02-06T07:42:48.005Z,5.87
2023-02-06T07:45:02.890Z,5.43
2023-02-06T07:47:05.613Z,5.20
2023-02-06T07:49:07.279Z,6.40
2023-02-06T07:51:10.141Z,5.50
2023-02-06T07:53:11.846Z,6.37
2023-02-06T07:55:13.503Z,5.47
2023-02-06T07:57:15.132Z,6.43
2023-02-06T07:59:16.967Z,5.77
2023-02-06T08:01:19.552Z,5.87
2023-02-06T08:03:21.528Z,5.30
2023-02-06T08:05:23.242Z,5.37
2023-02-06T08:07:24.879Z,5.53
2023-02-06T08:09:26.558Z,5.50
2023-02-06T08:11:31.127Z,6.20
2023-02-06T08:13:34.998Z,5.80
2023-02-06T08:15:36.975Z,5.70
2023-02-06T08:17:38.855Z,5.30
2023-02-06T08:19:40.936Z,5.30
2023-02-06T08:21:42.612Z,5.53
2023-02-06T08:23:44.558Z,5.47
2023-02-06T08:25:48.620Z,5.60
2023-02-06T08:27:55.086Z,5.37
2023-02-06T08:29:59.274Z,5.43
2023-02-06T08:32:01.966Z,5.07
2023-02-06T08:34:06.989Z,5.30
2023-02-06T08:36:09.329Z,5.20
2023-02-06T08:38:12.284Z,5.97
2023-02-06T08:40:14.203Z,5.13
2023-02-06T08:42:16.046Z,4.97
2023-02-06T08:44:18.512Z,4.97
2023-02-06T08:46:28.774Z,4.87
2023-02-06T08:48:30.619Z,4.87
2023-02-06T08:50:32.287Z,4.70
2023-02-06T08:52:34.014Z,4.67
2023-02-06T08:54:39.027Z,4.50
2023-02-06T08:56:40.887Z,4.50
2023-02-06T08:58:42.710Z,5.30
2023-02-06T09:00:44.528Z,5.20
2023-02-06T09:02:46.782Z,5.10
2023-02-06T09:04:48.562Z,4.10
2023-02-06T09:06:52.591Z,4.93
2023-02-06T09:08:56.032Z,4.70
2023-02-06T09:11:08.465Z,4.67
2023-02-06T09:13:12.388Z,4.20
2023-02-06T09:15:14.998Z,4.80
2023-02-06T09:17:16.912Z,4.70
2023-02-06T09:19:20.952Z,4.17
2023-02-06T09:21:24.918Z,4.47
2023-02-06T09:23:29.770Z,4.37
2023-02-06T09:25:31.464Z,3.90
2023-02-06T09:27:33.200Z,4.20
2023-02-06T09:29:35.094Z,3.73
2023-02-06T09:31:42.344Z,4.30
2023-02-06T09:33:44.397Z,4.43
2023-02-06T09:35:46.103Z,3.93
2023-02-06T09:37:47.906Z,3.47
2023-02-06T09:39:49.584Z,3.83
2023-02-06T09:41:55.079Z,4.10
2023-02-06T09:44:18.049Z,4.17
2023-02-06T09:46:27.185Z,3.90
2023-02-06T09:48:33.021Z,4.67
2023-02-06T09:50:49.947Z,4.47
2023-02-06T09:53:10.604Z,4.60
2023-02-06T09:55:30.718Z,4.20
2023-02-06T09:57:50.405Z,4.50
2023-02-06T09:59:59.917Z,4.17
2023-02-06T10:02:44.407Z,4.23
2023-02-06T10:05:03.793Z,4.10
2023-02-06T10:07:19.670Z,3.93
2023-02-06T10:09:45.994Z,4.30
2023-02-06T10:12:04.057Z,3.90
2023-02-06T10:14:23.745Z,3.73
2023-02-06T10:16:48.560Z,4.40
2023-02-06T10:18:54.989Z,4.40
2023-02-06T10:21:02.086Z,3.70
2023-02-06T10:23:24.060Z,3.83
2023-02-06T10:25:25.740Z,4.37
2023-02-06T10:27:35.095Z,4.03
2023-02-06T10:29:37.092Z,3.43
2023-02-06T10:32:15.115Z,4.30
2023-02-06T10:34:19.824Z,4.20
2023-02-06T10:37:01.665Z,4.17
2023-02-06T10:39:21.979Z,4.20
2023-02-06T10:41:29.520Z,3.97
2023-02-06T10:43:49.284Z,3.90
2023-02-06T10:45:55.509Z,4.13
2023-02-06T10:48:31.583Z,3.63
2023-02-06T10:50:52.472Z,4.00
2023-02-06T10:52:59.968Z,3.93
2023-02-06T10:55:14.327Z,4.13
2023-02-06T10:57:19.586Z,4.00
2023-02-06T10:59:48.985Z,4.20
2023-02-06T11:02:14.443Z,3.70
2023-02-06T11:04:35.291Z,3.77
2023-02-06T11:06:40.084Z,4.20
2023-02-06T11:08:46.577Z,3.87
2023-02-06T11:11:22.508Z,4.07
2023-02-06T11:13:33.262Z,4.03
2023-02-06T11:15:43.829Z,3.47
2023-02-06T11:17:45.945Z,4.03
2023-02-06T11:19:51.190Z,4.17
2023-02-06T11:22:07.760Z,3.60
2023-02-06T11:24:14.844Z,3.90
2023-02-06T11:26:23.572Z,3.50
2023-02-06T11:28:27.061Z,3.40
2023-02-06T11:30:39.015Z,3.90
2023-02-06T11:32:52.704Z,3.90
2023-02-06T11:35:08.312Z,3.87
2023-02-06T11:37:40.400Z,3.87
2023-02-06T11:39:44.563Z,3.80
2023-02-06T11:42:05.926Z,3.60
2023-02-06T11:44:14.387Z,3.70
2023-02-06T11:46:24.310Z,3.60
2023-02-06T11:48:38.852Z,3.87
2023-02-06T11:50:41.341Z,3.87
2023-02-06T11:52:47.227Z,4.57
2023-02-06T11:54:54.700Z,3.90
2023-02-06T11:57:00.260Z,3.60
2023-02-06T11:59:14.568Z,3.77
2023-02-06T12:01:20.573Z,3.53
2023-02-06T12:03:54.890Z,3.53
2023-02-06T12:06:02.919Z,3.80
2023-02-06T12:08:13.403Z,3.60
2023-02-06T12:10:20.599Z,3.60
2023-02-06T12:12:29.051Z,3.63
2023-02-06T12:15:29.511Z,3.50
2023-02-06T12:17:44.960Z,3.43
2023-02-06T12:19:52.210Z,3.37
2023-02-06T12:22:00.975Z,3.33
2023-02-06T12:24:11.031Z,3.17
2023-02-06T12:26:20.096Z,3.20
2023-02-06T12:28:54.943Z,3.40
2023-02-06T12:31:00.836Z,3.50
2023-02-06T12:33:14.313Z,3.30
2023-02-06T12:35:22.578Z,3.80
2023-02-06T12:37:39.993Z,3.50
2023-02-06T12:39:44.047Z,3.03
2023-02-06T12:42:29.356Z,3.70
2023-02-06T12:44:57.079Z,3.10
2023-02-06T12:47:19.666Z,3.10
2023-02-06T12:49:36.088Z,3.60
2023-02-06T12:51:59.308Z,3.50
2023-02-06T12:54:03.455Z,3.30
2023-02-06T12:56:17.138Z,3.67
2023-02-06T12:58:36.214Z,3.73
2023-02-06T13:00:51.118Z,3.50
2023-02-06T13:03:20.457Z,3.73
2023-02-06T13:05:37.089Z,3.30
2023-02-06T13:07:48.949Z,4.17
2023-02-06T13:09:59.282Z,3.50
2023-02-06T13:12:13.680Z,4.50
2023-02-06T13:14:24.402Z,4.83
2023-02-06T13:17:10.281Z,4.00
2023-02-06T13:19:26.877Z,3.13
2023-02-06T13:21:33.806Z,3.33
2023-02-06T13:23:35.491Z,3.83
2023-02-06T13:25:39.861Z,3.23
2023-02-06T13:27:44.784Z,3.50
2023-02-06T13:29:48.547Z,3.63
2023-02-06T13:32:10.224Z,3.70
2023-02-06T13:34:16.839Z,3.43
2023-02-06T13:36:40.143Z,3.43
2023-02-06T13:38:42.518Z,3.57
2023-02-06T13:40:47.119Z,3.53
2023-02-06T13:43:08.680Z,3.17
2023-02-06T13:45:19.773Z,3.47
2023-02-06T13:48:05.676Z,3.30
2023-02-06T13:50:21.030Z,3.27
2023-02-06T13:52:53.010Z,3.73
2023-02-06T13:55:25.863Z,3.30
2023-02-06T13:57:46.462Z,3.57
2023-02-06T14:00:10.020Z,3.57
2023-02-06T14:02:39.596Z,3.87
2023-02-06T14:04:45.180Z,3.83
2023-02-06T14:06:56.632Z,3.50
2023-02-06T14:09:11.555Z,3.50
2023-02-06T14:11:14.407Z,3.70
2023-02-06T14:13:29.082Z,3.90
2023-02-06T14:15:46.819Z,3.73
2023-02-06T14:18:07.273Z,4.00
2023-02-06T14:20:23.739Z,3.40
2023-02-06T14:23:21.529Z,3.43
2023-02-06T14:25:56.272Z,3.50
2023-02-06T14:28:34.751Z,3.37
2023-02-06T14:31:20.690Z,3.17
2023-02-06T14:33:56.837Z,3.30
2023-02-06T14:36:06.258Z,3.40
2023-02-06T14:38:10.713Z,3.37
2023-02-06T14:40:29.656Z,3.60
2023-02-06T14:42:40.302Z,3.50
2023-02-06T14:44:43.860Z,3.77
2023-02-06T14:46:48.914Z,3.10
2023-02-06T14:48:53.095Z,3.40
2023-02-06T14:50:57.582Z,3.37
2023-02-06T14:53:19.259Z,3.50
2023-02-06T14:55:42.830Z,3.33
2023-02-06T14:57:45.546Z,3.20
2023-02-06T14:59:52.903Z,3.30
2023-02-06T15:01:56.022Z,3.10
2023-02-06T15:04:10.221Z,3.10
2023-02-06T15:06:17.843Z,3.27
2023-02-06T15:08:20.539Z,2.73
2023-02-06T15:10:28.078Z,2.93
2023-02-06T15:12:30.129Z,3.20
2023-02-06T15:14:34.125Z,3.07
2023-02-06T15:16:46.708Z,3.47
2023-02-06T15:18:48.479Z,3.60
2023-02-06T15:20:58.172Z,3.43
2023-02-06T15:23:16.946Z,2.93
2023-02-06T15:25:43.248Z,3.53
2023-02-06T15:27:45.028Z,2.70
2023-02-06T15:29:50.799Z,3.90
2023-02-06T15:32:07.249Z,3.47
2023-02-06T15:34:16.992Z,3.60
2023-02-06T15:36:25.429Z,3.00
2023-02-06T15:38:30.351Z,3.10
2023-02-06T15:40:36.552Z,3.63
2023-02-06T15:42:38.763Z,3.20
2023-02-06T15:44:40.923Z,3.30
2023-02-06T15:46:42.987Z,3.57
2023-02-06T15:48:48.727Z,3.23
2023-02-06T15:51:16.558Z,3.53
2023-02-06T15:53:23.274Z,3.53
2023-02-06T15:55:40.619Z,3.80
2023-02-06T15:57:48.661Z,3.70
2023-02-06T15:59:53.866Z,3.80
2023-02-06T16:01:57.882Z,4.17
2023-02-06T16:04:08.032Z,3.50
2023-02-06T16:06:17.055Z,3.73
2023-02-06T16:08:23.048Z,3.97
2023-02-06T16:10:30.629Z,3.77
2023-02-06T16:12:39.175Z,3.80
2023-02-06T16:14:51.028Z,4.50
2023-02-06T16:17:02.870Z,4.10
2023-02-06T16:20:02.234Z,4.50
2023-02-06T16:22:20.565Z,3.97
2023-02-06T16:24:28.322Z,4.23
2023-02-06T16:26:32.578Z,4.17
2023-02-06T16:28:53.100Z,4.40
2023-02-06T16:31:05.360Z,4.80
2023-02-06T16:33:42.836Z,5.07
2023-02-06T16:35:44.518Z,4.30
2023-02-06T16:37:46.208Z,4.80
2023-02-06T16:39:48.332Z,4.77
2023-02-06T16:41:52.817Z,5.33
2023-02-06T16:43:56.703Z,4.80
2023-02-06T16:46:02.019Z,5.17
2023-02-06T16:48:03.910Z,5.30
2023-02-06T16:50:05.841Z,5.60
2023-02-06T16:52:09.056Z,4.97
2023-02-06T16:54:26.757Z,4.80
2023-02-06T16:56:28.461Z,5.17
2023-02-06T16:58:33.132Z,4.83
2023-02-06T17:00:35.233Z,4.80
2023-02-06T17:02:38.195Z,4.97
2023-02-06T17:04:40.428Z,5.17
2023-02-06T17:06:42.391Z,5.00
2023-02-06T17:08:44.396Z,4.57
2023-02-06T17:10:46.926Z,4.50
2023-02-06T17:12:49.712Z,4.33
2023-02-06T17:14:51.466Z,4.53
2023-02-06T17:16:54.493Z,4.97
2023-02-06T17:18:57.736Z,4.53
2023-02-06T17:20:59.452Z,5.07
2023-02-06T17:23:01.450Z,5.13
2023-02-06T17:25:03.968Z,4.50
2023-02-06T17:27:07.758Z,4.33
2023-02-06T17:29:12.811Z,4.30
2023-02-06T17:31:14.953Z,4.80
2023-02-06T17:33:17.382Z,5.03
2023-02-06T17:35:19.567Z,4.50
2023-02-06T17:37:21.591Z,4.40
2023-02-06T17:39:24.203Z,4.40
2023-02-06T17:41:27.175Z,5.20
2023-02-06T17:43:30.973Z,5.00
2023-02-06T17:45:34.798Z,4.53
2023-02-06T17:47:36.677Z,4.90
2023-02-06T17:49:38.586Z,5.03
2023-02-06T17:51:41.647Z,4.53
2023-02-06T17:53:43.453Z,4.87
2023-02-06T17:55:45.604Z,5.60
2023-02-06T17:57:47.304Z,5.03
2023-02-06T17:59:52.669Z,6.50
2023-02-06T18:01:59.037Z,5.90
2023-02-06T18:04:00.984Z,5.63
2023-02-06T18:06:03.029Z,5.20
2023-02-06T18:08:04.766Z,5.23
2023-02-06T18:10:08.252Z,5.00
2023-02-06T18:12:10.014Z,5.37
2023-02-06T18:14:11.865Z,5.07
2023-02-06T18:16:20.291Z,5.73
2023-02-06T18:18:25.663Z,5.50
2023-02-06T18:20:27.372Z,5.63
2023-02-06T18:22:29.105Z,6.03
2023-02-06T18:24:30.768Z,5.50
2023-02-06T18:26:33.043Z,5.47
2023-02-06T18:28:38.577Z,5.67
2023-02-06T18:30:41.785Z,6.00
2023-02-06T18:32:43.606Z,6.63
2023-02-06T18:34:48.829Z,5.87
2023-02-06T18:36:53.077Z,5.80
2023-02-06T18:38:55.318Z,5.97
2023-02-06T18:41:03.282Z,7.10
2023-02-06T18:43:06.174Z,5.70
2023-02-06T18:45:11.111Z,6.33
2023-02-06T18:47:14.813Z,6.03
2023-02-06T18:49:16.884Z,6.27
2023-02-06T18:51:19.895Z,6.50
2023-02-06T18:53:21.631Z,5.90
2023-02-06T18:55:23.765Z,6.57
2023-02-06T18:57:25.482Z,7.20
2023-02-06T18:59:34.404Z,7.00
2023-02-06T19:01:36.229Z,6.97
2023-02-06T19:03:42.916Z,7.17
2023-02-06T19:05:44.767Z,7.00
2023-02-06T19:07:53.499Z,6.60
2023-02-06T19:09:57.653Z,6.73
2023-02-06T19:11:59.386Z,7.30
2023-02-06T19:14:03.956Z,6.97
2023-02-06T19:16:08.701Z,7.83
2023-02-06T19:18:10.693Z,7.43
2023-02-06T19:20:14.713Z,7.83
2023-02-06T19:22:18.964Z,7.90
2023-02-06T19:24:26.076Z,7.43
2023-02-06T19:26:32.127Z,8.07
2023-02-06T19:28:36.645Z,7.97
2023-02-06T19:30:38.677Z,7.87
2023-02-06T19:32:46.355Z,7.43
2023-02-06T19:34:48.227Z,7.33
2023-02-06T19:36:49.922Z,7.97
2023-02-06T19:38:55.263Z,8.30
2023-02-06T19:40:57.044Z,8.23
2023-02-06T19:42:58.737Z,7.83
2023-02-06T19:45:00.548Z,8.00
2023-02-06T19:47:04.404Z,7.67
2023-02-06T19:49:08.753Z,8.57
2023-02-06T19:51:14.567Z,8.37
2023-02-06T19:53:16.990Z,8.97
2023-02-06T19:55:19.306Z,9.60
2023-02-06T19:57:21.093Z,8.90
2023-02-06T19:59:26.013Z,8.87
2023-02-06T20:01:30.189Z,8.57
2023-02-06T20:03:33.246Z,8.43
2023-02-06T20:05:34.990Z,8.37
2023-02-06T20:07:36.768Z,8.17
2023-02-06T20:09:41.737Z,8.20
2023-02-06T20:11:45.160Z,9.10
2023-02-06T20:13:48.063Z,9.27
2023-02-06T20:15:52.721Z,8.00
2023-02-06T20:17:54.523Z,8.30
2023-02-06T20:19:59.567Z,8.37
2023-02-06T20:22:02.446Z,7.93
2023-02-06T20:24:08.358Z,8.87
2023-02-06T20:26:10.033Z,8.03
2023-02-06T20:28:12.073Z,8.73
2023-02-06T20:30:14.585Z,7.33
2023-02-06T20:32:20.401Z,8.13
2023-02-06T20:34:26.914Z,7.47
2023-02-06T20:36:37.119Z,7.23
2023-02-06T20:38:39.003Z,8.93
2023-02-06T20:40:48.832Z,7.73
2023-02-06T20:42:50.611Z,7.97
2023-02-06T20:44:54.497Z,7.27
2023-02-06T20:46:56.234Z,7.13
2023-02-06T20:48:59.996Z,6.60
2023-02-06T20:51:08.040Z,6.73
2023-02-06T20:53:11.040Z,6.57
2023-02-06T20:55:16.460Z,7.13
2023-02-06T20:57:18.694Z,7.20
2023-02-06T20:59:20.781Z,7.00
2023-02-06T21:01:29.545Z,7.17
2023-02-06T21:03:41.431Z,7.83
2023-02-06T21:05:43.787Z,6.93
2023-02-06T21:07:47.795Z,6.80
2023-02-06T21:09:50.569Z,7.70
2023-02-06T21:11:53.459Z,7.57
2023-02-06T21:13:57.581Z,6.73
2023-02-06T21:16:05.154Z,6.90
2023-02-06T21:18:06.885Z,6.93
2023-02-06T21:20:09.698Z,6.63
2023-02-06T21:22:23.257Z,6.77
2023-02-06T21:24:25.084Z,6.67
2023-02-06T21:26:28.079Z,6.73
2023-02-06T21:28:32.209Z,6.80
2023-02-06T21:30:35.404Z,7.13
2023-02-06T21:32:37.211Z,6.50
2023-02-06T21:34:41.521Z,6.87
2023-02-06T21:36:45.787Z,6.60
2023-02-06T21:38:47.688Z,6.43
2023-02-06T21:40:51.742Z,5.97
2023-02-06T21:42:53.562Z,6.60
2023-02-06T21:44:55.319Z,6.27
2023-02-06T21:46:57.050Z,5.80
2023-02-06T21:49:01.254Z,6.43
2023-02-06T21:51:13.305Z,5.93
2023-02-06T21:53:14.954Z,6.23
2023-02-06T21:55:16.824Z,5.80
2023-02-06T21:57:18.864Z,5.43
2023-02-06T21:59:20.859Z,6.43
2023-02-06T22:01:23.676Z,6.50
2023-02-06T22:03:25.619Z,5.97
2023-02-06T22:05:28.086Z,5.70
2023-02-06T22:07:29.876Z,5.80
2023-02-06T22:09:31.651Z,5.60
2023-02-06T22:11:37.731Z,5.97
2023-02-06T22:13:39.619Z,5.27
2023-02-06T22:15:49.508Z,5.77
2023-02-06T22:17:51.422Z,6.40
2023-02-06T22:19:53.617Z,6.50
2023-02-06T22:21:55.340Z,5.00
2023-02-06T22:24:00.402Z,5.60
2023-02-06T22:26:02.765Z,5.37
2023-02-06T22:28:04.445Z,5.67
2023-02-06T22:30:08.255Z,5.40
2023-02-06T22:32:10.037Z,5.87
2023-02-06T22:34:19.757Z,5.97
2023-02-06T22:36:24.334Z,5.23
2023-02-06T22:38:26.068Z,5.53
2023-02-06T22:40:27.746Z,5.00
2023-02-06T22:42:29.497Z,5.07
2023-02-06T22:44:31.223Z,5.10
2023-02-06T22:46:37.350Z,5.60
2023-02-06T22:48:39.087Z,5.63
2023-02-06T22:50:40.799Z,5.50
2023-02-06T22:53:01.222Z,6.00
2023-02-06T22:55:05.158Z,5.33
2023-02-06T22:57:06.829Z,5.10
2023-02-06T22:59:13.353Z,4.40
2023-02-06T23:01:17.014Z,5.43
2023-02-06T23:03:18.690Z,4.63
2023-02-06T23:05:20.505Z,4.73
2023-02-06T23:07:22.224Z,5.20
2023-02-06T23:09:33.528Z,5.03
2023-02-06T23:11:35.714Z,4.70
2023-02-06T23:13:38.084Z,4.80
2023-02-06T23:15:46.389Z,4.70
2023-02-06T23:17:50.574Z,4.77
2023-02-06T23:19:52.238Z,4.97
2023-02-06T23:21:54.020Z,4.77
2023-02-06T23:23:56.832Z,5.10
2023-02-06T23:25:58.619Z,5.20
2023-02-06T23:28:00.430Z,5.60
2023-02-06T23:30:02.179Z,5.13
2023-02-06T23:32:03.997Z,5.20
2023-02-06T23:34:08.285Z,5.00
2023-02-06T23:36:17.051Z,5.17
2023-02-06T23:38:19.443Z,5.17
2023-02-06T23:40:21.235Z,5.10
2023-02-06T23:42:23.248Z,5.47
2023-02-06T23:44:24.972Z,4.83
2023-02-06T23:46:31.820Z,5.30
2023-02-06T23:48:36.209Z,5.30
2023-02-06T23:50:39.970Z,5.10
2023-02-06T23:52:41.681Z,4.97
2023-02-06T23:54:43.387Z,4.47
2023-02-06T23:56:47.339Z,4.70
2023-02-06T23:58:49.359Z,5.20
